Search METAR Data

METAR Data for ENGM:

ENGM 211950Z 22007KT CAVOK 18/07 Q1012 NOSIG